Time;durP1;ratioP1;P1;durP2;ratioP2;P2;SDS_P1;SDS_P2;PMS_P1;PMS_P2;Temp;Humidity;BMP_temperature;BMP_pressure;BME280_temperature;BME280_humidity;BME280_pressure;Samples;Min_cycle;Max_cycle;Signal;HPM_P1;HPM_P2
2022/04/09 00:00:15;;;;;;;5.63;1.35;;;;;;;19.33;41.82;100352.16;5014528;28;20034;-58
2022/04/09 00:02:43;;;;;;;6.40;1.45;;;;;;;19.31;41.79;100353.28;5013018;28;20462;-59
2022/04/09 00:05:13;;;;;;;5.28;1.45;;;;;;;19.30;42.12;100359.56;5014094;28;20041;-59
2022/04/09 00:07:41;;;;;;;3.88;1.42;;;;;;;19.28;41.76;100364.13;5014274;28;20026;-59
2022/04/09 00:10:09;;;;;;;5.97;1.50;;;;;;;19.27;41.79;100370.41;5013263;28;20025;-59
2022/04/09 00:12:35;;;;;;;6.60;1.40;;;;;;;19.23;41.80;100369.84;5014546;28;20049;-58
2022/04/09 00:15:00;;;;;;;5.13;1.40;;;;;;;19.24;41.99;100374.16;5014544;28;20026;-59
2022/04/09 00:17:26;;;;;;;4.22;1.35;;;;;;;19.21;42.02;100382.38;5013823;28;20051;-59
2022/04/09 00:19:52;;;;;;;5.90;1.50;;;;;;;19.21;41.97;100387.66;5014045;28;20026;-59
2022/04/09 00:22:17;;;;;;;5.22;1.60;;;;;;;19.19;41.69;100393.06;5014065;28;20267;-59
2022/04/09 00:24:43;;;;;;;6.20;1.40;;;;;;;19.20;41.88;100394.75;5013165;28;20473;-58
2022/04/09 00:27:08;;;;;;;5.32;1.73;;;;;;;19.24;41.92;100400.56;5013542;28;20092;-59
2022/04/09 00:29:33;;;;;;;5.57;1.33;;;;;;;19.25;41.81;100404.88;5013349;28;20029;-59
2022/04/09 00:31:59;;;;;;;2.83;1.10;;;;;;;19.28;41.77;100404.59;5013747;28;20268;-58
2022/04/09 00:34:24;;;;;;;4.28;1.40;;;;;;;19.31;41.52;100408.75;5013986;28;20084;-58
2022/04/09 00:36:49;;;;;;;7.13;1.63;;;;;;;19.32;41.62;100408.59;5012756;28;20033;-58
2022/04/09 00:39:14;;;;;;;6.50;1.80;;;;;;;19.35;41.31;100418.91;5013637;28;20030;-58
2022/04/09 00:41:41;;;;;;;6.65;1.60;;;;;;;19.35;41.39;100424.19;5013652;28;20040;-59
2022/04/09 00:44:22;;;;;;;6.20;1.52;;;;;;;19.37;40.98;100426.69;5012762;28;20022;-58
2022/04/09 00:46:48;;;;;;;5.18;1.40;;;;;;;19.37;41.18;100422.22;5013681;28;20033;-59
2022/04/09 00:49:15;;;;;;;7.53;1.65;;;;;;;19.38;40.97;100431.81;5013668;28;20045;-58
2022/04/09 00:51:42;;;;;;;5.03;1.48;;;;;;;19.40;41.02;100434.31;5012893;28;20045;-58
2022/04/09 00:54:11;;;;;;;7.30;1.77;;;;;;;19.40;41.17;100443.06;5013047;28;20036;-58
2022/04/09 00:56:38;;;;;;;5.93;1.38;;;;;;;19.40;40.87;100451.00;5013600;28;20029;-58
2022/04/09 00:59:06;;;;;;;4.95;1.45;;;;;;;19.38;41.01;100445.03;5012343;28;20076;-59
2022/04/09 01:01:35;;;;;;;5.15;1.50;;;;;;;19.38;40.89;100452.13;5013487;28;20109;-60
2022/04/09 01:04:08;;;;;;;6.18;1.70;;;;;;;19.40;40.66;100455.47;5012917;28;20029;-59
2022/04/09 01:06:35;;;;;;;6.38;1.40;;;;;;;19.39;40.88;100461.72;5012411;28;20022;-58
2022/04/09 01:09:01;;;;;;;5.97;1.48;;;;;;;19.38;40.77;100468.00;5013099;28;20084;-59
2022/04/09 01:11:27;;;;;;;6.53;1.60;;;;;;;19.37;40.74;100471.59;5013184;28;20091;-58
2022/04/09 01:13:53;;;;;;;5.25;1.52;;;;;;;19.37;40.74;100476.88;5011809;28;20042;-58
2022/04/09 01:16:18;;;;;;;5.72;1.42;;;;;;;19.36;41.03;100480.53;5013066;28;20109;-58
2022/04/09 01:18:43;;;;;;;4.63;1.40;;;;;;;19.34;41.22;100482.44;5012263;28;20434;-59
2022/04/09 01:21:09;;;;;;;5.32;1.50;;;;;;;19.35;41.08;100489.41;5012715;28;20021;-59
2022/04/09 01:23:35;;;;;;;9.30;1.73;;;;;;;19.34;40.92;100493.88;5013075;28;20025;-59
2022/04/09 01:26:03;;;;;;;6.72;1.73;;;;;;;19.36;40.80;100494.56;5012152;28;20061;-59
2022/04/09 01:28:29;;;;;;;4.88;1.40;;;;;;;19.39;40.84;100501.34;5012938;28;20120;-59
2022/04/09 01:30:54;;;;;;;6.15;1.58;;;;;;;19.39;40.98;100504.84;5012647;28;20089;-59
2022/04/09 01:33:21;;;;;;;4.80;1.35;;;;;;;19.40;40.95;100510.97;5012131;28;20359;-59
2022/04/09 01:35:47;;;;;;;5.38;1.60;;;;;;;19.40;40.84;100506.50;5012745;28;20022;-58
2022/04/09 01:38:12;;;;;;;6.13;1.30;;;;;;;19.40;40.37;100514.44;5012643;28;20030;-59
2022/04/09 01:40:38;;;;;;;6.60;1.70;;;;;;;19.40;40.57;100519.72;5012115;28;20100;-58
2022/04/09 01:43:03;;;;;;;5.53;1.95;;;;;;;19.40;40.40;100517.06;5012441;28;20030;-58
2022/04/09 01:45:29;;;;;;;6.13;1.50;;;;;;;19.39;40.16;100526.00;5012848;28;20053;-58
2022/04/09 01:47:55;;;;;;;4.95;1.60;;;;;;;19.40;40.29;100537.38;5011623;28;20367;-58
2022/04/09 01:50:21;;;;;;;8.73;1.92;;;;;;;19.38;40.40;100534.88;5012764;28;20052;-59
2022/04/09 01:52:47;;;;;;;7.00;1.98;;;;;;;19.38;40.24;100540.16;5012874;28;20092;-59
2022/04/09 01:55:12;;;;;;;5.82;1.23;;;;;;;19.37;40.08;100541.13;5011890;28;20022;-59
2022/04/09 01:57:37;;;;;;;5.68;1.40;;;;;;;19.36;40.21;100550.03;5012809;28;20026;-59
2022/04/09 02:00:05;;;;;;;5.93;1.80;;;;;;;19.36;40.46;100557.16;5012297;28;20504;-59
2022/04/09 02:02:32;;;;;;;5.22;1.40;;;;;;;19.30;40.29;100545.31;5011757;28;20268;-59
2022/04/09 02:05:03;;;;;;;5.43;1.48;;;;;;;19.32;40.20;100561.84;5012080;28;20108;-59
2022/04/09 02:07:29;;;;;;;7.45;1.48;;;;;;;19.32;40.58;100553.94;5012566;28;20485;-58
2022/04/09 02:10:00;;;;;;;5.78;1.30;;;;;;;19.33;40.73;100563.53;5011660;28;20054;-59
2022/04/09 02:12:25;;;;;;;6.40;1.45;;;;;;;19.36;40.32;100570.38;5012453;28;20074;-58
2022/04/09 02:14:50;;;;;;;4.87;1.63;;;;;;;19.36;40.56;100573.81;5012168;28;20059;-59
2022/04/09 02:17:16;;;;;;;4.97;1.40;;;;;;;19.37;40.54;100579.94;5011606;28;20270;-59
2022/04/09 02:19:41;;;;;;;8.27;1.90;;;;;;;19.38;40.26;100579.81;5012396;28;20470;-58
2022/04/09 02:22:06;;;;;;;5.70;1.50;;;;;;;19.38;40.26;100582.44;5011659;28;20333;-59
2022/04/09 02:24:32;;;;;;;4.57;1.52;;;;;;;19.37;40.09;100588.69;5012722;28;20030;-59
2022/04/09 02:26:58;;;;;;;6.28;1.40;;;;;;;19.39;39.96;100593.84;5015005;28;20064;-59
2022/04/09 02:29:24;;;;;;;5.68;1.40;;;;;;;19.38;39.99;100600.94;5015396;28;20150;-59
2022/04/09 02:31:49;;;;;;;4.38;1.30;;;;;;;19.38;39.90;100594.84;5015711;28;20402;-59
2022/04/09 02:34:14;;;;;;;5.13;1.30;;;;;;;19.36;40.02;100600.25;5015985;28;20024;-59
2022/04/09 02:36:40;;;;;;;6.78;1.67;;;;;;;19.37;40.56;100596.63;5015484;28;20101;-59
2022/04/09 02:39:05;;;;;;;5.88;1.42;;;;;;;19.37;40.52;100598.44;5015952;28;20125;-59
2022/04/09 02:41:31;;;;;;;6.28;1.52;;;;;;;19.39;40.61;100607.06;5016026;28;20133;-58
2022/04/09 02:43:57;;;;;;;5.18;1.52;;;;;;;19.42;40.25;100614.69;5014767;28;20034;-57
2022/04/09 02:46:22;;;;;;;5.68;1.38;;;;;;;19.44;40.15;100619.84;5015833;28;20021;-56
2022/04/09 02:48:48;;;;;;;3.88;1.40;;;;;;;19.42;40.01;100620.00;5016249;28;20373;-58
2022/04/09 02:51:13;;;;;;;5.80;1.33;;;;;;;19.45;40.00;100622.34;5015117;28;20109;-58
2022/04/09 02:53:45;;;;;;;6.28;1.48;;;;;;;19.45;39.67;100621.53;5015838;28;20032;-57
2022/04/09 02:56:10;;;;;;;5.40;1.20;;;;;;;19.45;39.70;100632.94;5015541;28;20081;-58
2022/04/09 02:58:36;;;;;;;5.05;1.20;;;;;;;19.47;39.76;100643.34;5015250;28;20037;-58
2022/04/09 03:01:01;;;;;;;5.43;1.30;;;;;;;19.47;39.89;100643.34;5015526;28;20026;-58
2022/04/09 03:03:26;;;;;;;4.50;1.30;;;;;;;19.45;39.92;100647.97;5016031;28;20129;-57
2022/04/09 03:05:52;;;;;;;4.13;1.30;;;;;;;19.43;39.68;100658.66;5014905;28;20026;-58
2022/04/09 03:08:17;;;;;;;5.25;1.30;;;;;;;19.44;39.81;100662.13;5015929;28;20279;-58
2022/04/09 03:10:42;;;;;;;5.30;1.33;;;;;;;19.42;39.98;100659.63;5015919;28;20528;-57
2022/04/09 03:13:08;;;;;;;6.65;1.50;;;;;;;19.42;40.13;100664.91;5014507;28;20291;-57
2022/04/09 03:15:33;;;;;;;5.70;1.43;;;;;;;19.44;40.13;100667.41;5015457;28;20026;-57
2022/04/09 03:17:59;;;;;;;5.50;1.40;;;;;;;19.44;40.06;100670.06;5015091;28;20354;-57
2022/04/09 03:20:24;;;;;;;7.32;1.67;;;;;;;19.46;40.36;100666.31;5014778;28;20064;-57
2022/04/09 03:22:49;;;;;;;5.43;1.50;;;;;;;19.46;40.19;100668.16;5015167;28;20466;-57
2022/04/09 03:25:15;;;;;;;5.72;1.40;;;;;;;19.47;40.03;100667.16;5015615;28;20157;-58
2022/04/09 03:27:41;;;;;;;9.55;1.80;;;;;;;19.47;39.89;100672.44;5014908;28;20018;-58
2022/04/09 03:30:08;;;;;;;5.50;1.42;;;;;;;19.47;40.04;100675.94;5014930;28;20037;-58
2022/04/09 03:32:36;;;;;;;6.13;1.30;;;;;;;19.48;39.90;100687.31;5014655;28;20026;-59
2022/04/09 03:35:02;;;;;;;5.20;1.33;;;;;;;19.47;39.97;100688.28;5015031;28;20022;-59
2022/04/09 03:37:28;;;;;;;4.50;1.17;;;;;;;19.45;39.90;100691.06;5013941;28;20050;-59
2022/04/09 03:39:53;;;;;;;5.13;1.40;;;;;;;19.43;39.53;100693.03;5014130;28;20064;-58
2022/04/09 03:42:18;;;;;;;6.20;1.40;;;;;;;19.43;39.58;100695.66;5014981;28;20176;-58
2022/04/09 03:44:43;;;;;;;5.40;1.37;;;;;;;19.42;39.58;100699.28;5014855;28;20026;-58
2022/04/09 03:47:09;;;;;;;4.65;1.20;;;;;;;19.42;39.84;100699.28;5014169;28;20283;-58
2022/04/09 03:49:34;;;;;;;5.38;1.30;;;;;;;19.42;39.99;100701.91;5015120;28;20033;-58
2022/04/09 03:52:00;;;;;;;4.85;1.17;;;;;;;19.44;39.94;100702.63;5014824;28;20600;-58
2022/04/09 03:54:30;;;;;;;7.00;1.58;;;;;;;19.43;39.80;100711.53;5014072;28;20077;-58
2022/04/09 03:56:56;;;;;;;3.97;1.23;;;;;;;19.44;39.45;100713.22;5014630;28;20030;-58
2022/04/09 03:59:21;;;;;;;4.93;1.30;;;;;;;19.45;39.59;100714.84;5014713;28;20096;-59
2022/04/09 04:01:47;;;;;;;4.65;1.20;;;;;;;19.46;39.51;100719.19;5014228;28;20057;-59
2022/04/09 04:04:13;;;;;;;6.25;1.40;;;;;;;19.45;39.64;100728.06;5014535;28;20022;-59
2022/04/09 04:06:41;;;;;;;6.68;1.20;;;;;;;19.44;39.49;100723.78;5014681;28;20071;-59
2022/04/09 04:09:07;;;;;;;4.63;1.13;;;;;;;19.44;39.65;100734.34;5013571;28;20026;-58
2022/04/09 04:11:32;;;;;;;4.50;1.63;;;;;;;19.43;39.45;100734.47;5014538;28;20029;-59
2022/04/09 04:13:57;;;;;;;4.95;1.42;;;;;;;19.42;39.36;100743.38;5013891;28;20048;-58
2022/04/09 04:16:23;;;;;;;5.27;1.60;;;;;;;19.39;39.56;100736.53;5013781;28;20026;-58
2022/04/09 04:18:48;;;;;;;5.80;1.43;;;;;;;19.37;39.54;100739.31;5014322;28;20787;-58
2022/04/09 04:21:16;;;;;;;5.25;1.17;;;;;;;19.38;39.80;100756.03;5014428;28;20277;-59
2022/04/09 04:23:42;;;;;;;5.13;1.30;;;;;;;19.40;40.15;100756.72;5013376;28;20049;-59
2022/04/09 04:26:07;;;;;;;3.80;1.38;;;;;;;19.40;40.29;100754.06;5014018;28;20053;-59
2022/04/09 04:28:33;;;;;;;5.28;1.42;;;;;;;19.42;39.82;100761.88;5014281;28;20381;-59
2022/04/09 04:30:58;;;;;;;5.22;1.58;;;;;;;19.42;39.82;100764.50;5013336;28;20072;-58
2022/04/09 04:33:23;;;;;;;5.00;1.38;;;;;;;19.42;39.72;100760.06;5014282;28;20022;-58
2022/04/09 04:35:49;;;;;;;5.35;1.50;;;;;;;19.43;39.67;100771.47;5013063;28;20473;-58
2022/04/09 04:38:14;;;;;;;5.97;1.40;;;;;;;19.43;39.56;100768.84;5013889;28;20024;-57
2022/04/09 04:40:39;;;;;;;5.45;1.42;;;;;;;19.42;39.43;100775.91;5014227;28;20030;-57
2022/04/09 04:43:05;;;;;;;5.50;1.40;;;;;;;19.38;39.40;100767.41;5012770;28;20496;-57
2022/04/09 04:45:31;;;;;;;6.35;2.20;;;;;;;19.40;39.33;100769.94;5014010;28;20028;-57
2022/04/09 04:47:57;;;;;;;7.47;1.45;;;;;;;19.39;39.48;100782.31;5013436;28;20032;-57
2022/04/09 04:50:23;;;;;;;3.63;1.27;;;;;;;19.40;39.61;100780.50;5012931;28;20481;-58
2022/04/09 04:52:48;;;;;;;5.63;1.30;;;;;;;19.39;39.89;100790.25;5013642;28;20086;-57
2022/04/09 04:55:14;;;;;;;4.88;1.33;;;;;;;19.40;40.17;100793.72;5013698;28;20018;-59
2022/04/09 04:57:51;;;;;;;6.03;1.40;;;;;;;19.42;40.14;100796.22;5012810;28;20026;-58
2022/04/09 05:00:21;;;;;;;6.10;1.45;;;;;;;19.42;40.01;100799.69;5013768;28;20033;-57
2022/04/09 05:02:47;;;;;;;4.57;1.33;;;;;;;19.43;39.88;100804.03;5013712;28;20025;-58
2022/04/09 05:05:12;;;;;;;5.75;1.40;;;;;;;19.45;39.79;100801.25;5012404;28;20018;-58
2022/04/09 05:07:43;;;;;;;3.90;1.35;;;;;;;19.45;39.89;100807.34;5013003;28;20046;-57
2022/04/09 05:10:11;;;;;;;6.55;1.38;;;;;;;19.47;40.61;100815.16;5013259;28;20107;-58
2022/04/09 05:12:37;;;;;;;4.90;1.20;;;;;;;19.48;41.07;100820.31;5013147;28;20050;-58
2022/04/09 05:15:04;;;;;;;5.45;1.08;;;;;;;19.50;41.47;100826.31;5013716;28;20022;-59
2022/04/09 05:17:29;;;;;;;6.82;1.58;;;;;;;19.52;41.57;100832.28;5013718;28;20097;-59
2022/04/09 05:19:58;;;;;;;6.55;1.45;;;;;;;19.53;41.55;100831.31;5012298;28;20161;-59
2022/04/09 05:22:27;;;;;;;5.50;1.23;;;;;;;19.54;41.61;100838.28;5013202;28;20026;-58
2022/04/09 05:24:53;;;;;;;3.80;1.20;;;;;;;19.56;41.57;100841.63;5012140;28;20057;-58
2022/04/09 05:27:19;;;;;;;4.82;1.30;;;;;;;19.59;41.48;100840.53;5013291;28;20022;-58
2022/04/09 05:29:44;;;;;;;5.63;1.15;;;;;;;19.61;41.64;100854.44;5013365;28;20474;-58
2022/04/09 05:32:09;;;;;;;5.95;1.35;;;;;;;19.64;41.60;100855.97;5012264;28;20022;-57
2022/04/09 05:34:35;;;;;;;5.32;1.63;;;;;;;19.66;41.42;100854.03;5013267;28;20043;-58
2022/04/09 05:37:03;;;;;;;6.13;1.17;;;;;;;19.68;41.54;100862.69;5012820;28;20103;-57
2022/04/09 05:39:35;;;;;;;5.82;1.50;;;;;;;19.69;41.56;100861.69;5012175;28;20287;-59
2022/04/09 05:42:00;;;;;;;4.40;1.23;;;;;;;19.69;41.29;100873.13;5012822;28;20065;-59
2022/04/09 05:44:26;;;;;;;4.85;1.10;;;;;;;19.71;41.44;100878.25;5013093;28;20046;-58
2022/04/09 05:46:51;;;;;;;4.45;1.25;;;;;;;19.70;41.67;100882.72;5011923;28;20048;-57
2022/04/09 05:49:16;;;;;;;5.97;1.10;;;;;;;19.70;41.39;100882.72;5012946;28;20032;-59
2022/04/09 05:51:42;;;;;;;5.03;1.30;;;;;;;19.71;41.57;100892.34;5012881;28;20068;-58
2022/04/09 05:54:13;;;;;;;4.43;1.20;;;;;;;19.72;41.80;100898.44;5011836;28;20026;-58
2022/04/09 05:56:38;;;;;;;5.05;1.17;;;;;;;19.72;41.93;100895.81;5013029;28;20030;-58
2022/04/09 05:59:03;;;;;;;4.38;1.38;;;;;;;19.72;41.89;100893.97;5012595;28;20462;-58
2022/04/09 06:01:29;;;;;;;4.67;1.30;;;;;;;19.73;41.31;100905.41;5014686;28;20105;-59
2022/04/09 06:03:55;;;;;;;4.65;1.23;;;;;;;19.73;41.99;100911.53;5016662;28;20279;-58
2022/04/09 06:06:21;;;;;;;4.80;1.25;;;;;;;19.75;41.79;100908.75;5016857;28;20022;-58
2022/04/09 06:08:47;;;;;;;5.50;1.15;;;;;;;19.76;41.69;100913.13;5016089;28;20129;-59
2022/04/09 06:11:12;;;;;;;6.45;1.10;;;;;;;19.77;41.69;100920.06;5016387;28;20145;-59
2022/04/09 06:13:38;;;;;;;4.95;1.15;;;;;;;19.80;41.81;100918.97;5016624;28;20061;-59
2022/04/09 06:16:08;;;;;;;5.37;1.30;;;;;;;19.80;41.78;100921.63;5015767;28;20026;-58
2022/04/09 06:18:37;;;;;;;5.15;1.15;;;;;;;19.80;41.68;100919.78;5016906;28;20361;-59
2022/04/09 06:21:03;;;;;;;5.10;1.42;;;;;;;19.83;41.53;100927.47;5016298;28;20446;-58
2022/04/09 06:23:28;;;;;;;4.85;1.23;;;;;;;19.84;41.75;100934.44;5015813;28;20111;-58
2022/04/09 06:25:54;;;;;;;3.73;0.90;;;;;;;19.84;41.89;100941.53;5016403;28;20058;-58
2022/04/09 06:28:22;;;;;;;6.20;1.13;;;;;;;19.85;41.53;100938.75;5015718;28;20623;-58
2022/04/09 06:30:47;;;;;;;4.95;1.40;;;;;;;19.87;41.68;100944.75;5016621;28;20303;-58
2022/04/09 06:33:12;;;;;;;3.45;0.90;;;;;;;19.88;41.74;100953.50;5016088;28;20516;-58
2022/04/09 06:35:37;;;;;;;9.30;1.63;;;;;;;19.90;41.82;100956.84;5015858;28;20501;-58
2022/04/09 06:38:03;;;;;;;5.07;1.20;;;;;;;19.90;41.83;100963.00;5016127;28;20481;-57
2022/04/09 06:40:28;;;;;;;4.07;1.10;;;;;;;19.92;41.83;100960.22;5016189;28;20030;-58
2022/04/09 06:42:54;;;;;;;5.00;1.20;;;;;;;19.92;41.68;100960.22;5014860;28;20055;-58
2022/04/09 06:45:20;;;;;;;5.30;1.20;;;;;;;19.92;41.85;100966.34;5016212;28;20030;-57
2022/04/09 06:47:47;;;;;;;5.05;1.40;;;;;;;19.93;41.53;100975.09;5016114;28;20385;-58
2022/04/09 06:50:13;;;;;;;5.32;1.50;;;;;;;19.90;41.90;100972.72;5014976;28;20105;-59
2022/04/09 06:52:42;;;;;;;5.28;1.30;;;;;;;19.92;41.97;100963.69;5015885;28;20029;-57
2022/04/09 06:55:11;;;;;;;4.78;1.08;;;;;;;19.93;41.80;100973.31;5015625;28;20030;-58
2022/04/09 06:57:38;;;;;;;6.93;1.40;;;;;;;19.94;41.74;100974.97;5015215;28;20064;-59
2022/04/09 07:00:07;;;;;;;6.03;1.10;;;;;;;19.98;41.79;100980.00;5015419;28;20029;-58
2022/04/09 07:02:35;;;;;;;5.95;1.33;;;;;;;19.98;41.61;100978.22;5015644;28;20029;-59
2022/04/09 07:05:00;;;;;;;5.82;1.20;;;;;;;19.97;40.25;100988.91;5014676;28;20022;-58
2022/04/09 07:07:26;;;;;;;4.33;1.10;;;;;;;19.92;41.29;100987.50;5015708;28;20426;-58
2022/04/09 07:10:01;;;;;;;5.60;1.48;;;;;;;19.93;41.83;100993.63;5015451;28;20359;-58
2022/04/09 07:12:26;;;;;;;6.35;1.63;;;;;;;19.89;42.08;100995.69;5014484;28;20042;-58
2022/04/09 07:14:51;;;;;;;6.50;1.63;;;;;;;19.90;42.33;100996.53;5015119;28;20026;-58
2022/04/09 07:17:20;;;;;;;3.60;1.27;;;;;;;19.90;41.74;101007.97;5015542;28;20048;-57
2022/04/09 07:19:56;;;;;;;5.35;1.52;;;;;;;19.92;42.07;101011.31;5014685;28;20287;-59
2022/04/09 07:22:22;;;;;;;7.30;1.88;;;;;;;19.91;42.12;101006.97;5015549;28;20371;-59
2022/04/09 07:24:47;;;;;;;5.73;1.20;;;;;;;19.91;42.36;101017.56;5014825;28;20026;-58
2022/04/09 07:27:12;;;;;;;4.50;1.00;;;;;;;19.90;42.61;101017.69;5014989;28;20674;-58
2022/04/09 07:29:38;;;;;;;5.60;1.33;;;;;;;19.88;42.44;101024.91;5015315;28;20033;-58
2022/04/09 07:32:04;;;;;;;5.53;1.17;;;;;;;19.88;42.67;101024.91;5014192;28;20109;-58
2022/04/09 07:34:31;;;;;;;5.07;1.17;;;;;;;19.87;42.93;101029.38;5015348;28;20033;-58
2022/04/09 07:36:57;;;;;;;7.05;1.52;;;;;;;19.85;42.94;101026.03;5014986;28;20366;-58
2022/04/09 07:39:22;;;;;;;4.03;1.13;;;;;;;19.86;43.23;101030.34;5014525;28;20033;-58
2022/04/09 07:41:47;;;;;;;6.67;1.30;;;;;;;19.89;43.11;101038.00;5015115;28;20682;-58
2022/04/09 07:44:13;;;;;;;4.65;1.50;;;;;;;19.90;42.56;101034.41;5014868;28;20306;-58
2022/04/09 07:46:39;;;;;;;6.63;1.77;;;;;;;19.92;42.79;101032.47;5014221;28;20056;-58
2022/04/09 07:49:04;;;;;;;5.78;1.23;;;;;;;19.96;42.98;101037.50;5014893;28;20048;-58
2022/04/09 07:51:29;;;;;;;5.70;1.33;;;;;;;19.98;42.69;101038.19;5015165;28;20457;-58
2022/04/09 07:53:54;;;;;;;4.32;1.13;;;;;;;20.01;42.86;101045.88;5014073;28;20133;-58
2022/04/09 07:56:20;;;;;;;4.43;1.20;;;;;;;20.04;43.03;101042.97;5015007;28;20053;-58
2022/04/09 07:58:45;;;;;;;6.67;1.20;;;;;;;20.05;42.95;101044.66;5014911;28;20279;-57
2022/04/09 08:01:13;;;;;;;4.97;1.30;;;;;;;20.05;42.99;101034.06;5013630;28;20272;-57
2022/04/09 08:03:38;;;;;;;5.43;1.40;;;;;;;20.05;43.00;101052.59;5014925;28;20026;-58
2022/04/09 08:06:07;;;;;;;4.30;1.40;;;;;;;20.05;43.13;101048.13;5014688;28;20028;-57
2022/04/09 08:08:32;;;;;;;5.82;1.40;;;;;;;20.07;43.18;101050.63;5014091;28;20330;-58
2022/04/09 08:10:58;;;;;;;6.90;1.30;;;;;;;20.09;43.23;101044.25;5014312;28;20037;-58
2022/04/09 08:13:23;;;;;;;5.22;1.40;;;;;;;20.11;42.78;101046.75;5014420;28;20088;-58
2022/04/09 08:15:52;;;;;;;5.47;1.63;;;;;;;20.13;42.95;101058.03;5013496;28;20052;-59
2022/04/09 08:18:17;;;;;;;6.57;1.40;;;;;;;20.15;43.04;101049.97;5014783;28;20109;-60
2022/04/09 08:20:43;;;;;;;5.03;1.20;;;;;;;20.19;42.76;101054.88;5013897;28;20117;-58
2022/04/09 08:23:08;;;;;;;5.07;1.40;;;;;;;20.21;42.90;101047.63;5013507;28;20385;-59
2022/04/09 08:25:33;;;;;;;5.50;1.23;;;;;;;20.21;42.77;101052.09;5014471;28;20026;-58
2022/04/09 08:28:00;;;;;;;6.60;1.77;;;;;;;20.21;42.80;101068.78;5013137;28;20029;-59
2022/04/09 08:30:26;;;;;;;5.03;1.42;;;;;;;20.20;42.15;101061.00;5013965;28;20113;-59
2022/04/09 08:32:55;;;;;;;7.40;1.65;;;;;;;20.19;42.21;101051.41;5013930;28;20108;-58
2022/04/09 08:35:21;;;;;;;6.65;1.58;;;;;;;20.22;42.55;101061.69;5013310;28;20504;-59
2022/04/09 08:37:55;;;;;;;5.30;1.23;;;;;;;20.23;42.51;101071.31;5014045;28;20030;-59
2022/04/09 08:40:21;;;;;;;4.72;1.50;;;;;;;20.25;40.93;101072.00;5014264;28;20034;-60
2022/04/09 08:42:48;;;;;;;5.10;1.30;;;;;;;20.27;42.09;101068.25;5013135;28;20026;-59
2022/04/09 08:45:15;;;;;;;7.35;1.80;;;;;;;20.29;42.17;101076.91;5014142;28;20109;-59
2022/04/09 08:47:42;;;;;;;5.35;1.35;;;;;;;20.28;42.19;101079.69;5013913;28;20556;-59
2022/04/09 08:50:13;;;;;;;3.75;1.13;;;;;;;20.32;42.04;101093.50;5013014;28;20196;-57
2022/04/09 08:52:42;;;;;;;5.55;1.38;;;;;;;20.34;42.03;101091.56;5013575;28;20463;-58
2022/04/09 08:55:12;;;;;;;7.47;1.20;;;;;;;20.39;41.77;101102.56;5013449;28;20029;-57
2022/04/09 08:57:38;;;;;;;5.72;1.33;;;;;;;20.43;42.00;101093.41;5013342;28;20030;-57
2022/04/09 09:00:07;;;;;;;6.82;1.65;;;;;;;20.45;41.75;101094.09;5013504;28;20440;-59
2022/04/09 09:02:47;;;;;;;5.97;1.65;;;;;;;20.47;41.88;101100.94;5013733;28;20044;-59
2022/04/09 09:05:31;;;;;;;5.20;1.40;;;;;;;20.47;42.01;101100.94;5012596;28;20195;-58
2022/04/09 09:07:57;;;;;;;5.18;1.30;;;;;;;20.47;42.01;101113.31;5013263;28;20030;-58
2022/04/09 09:10:22;;;;;;;7.72;1.67;;;;;;;20.46;41.93;101107.22;5013018;28;20030;-59
2022/04/09 09:13:07;;;;;;;4.63;1.40;;;;;;;20.44;41.89;101111.81;5013273;28;20061;-58
2022/04/09 09:15:46;;;;;;;5.22;1.05;;;;;;;20.41;41.92;101103.28;5013499;28;20026;-58
2022/04/09 09:18:24;;;;;;;3.90;1.10;;;;;;;20.42;42.12;101115.53;5012379;28;20507;-59
2022/04/09 09:20:52;;;;;;;6.25;1.58;;;;;;;20.45;41.84;101131.16;5013253;28;20037;-59
2022/04/09 09:23:31;;;;;;;4.20;1.20;;;;;;;20.48;41.98;101118.50;5013485;28;20061;-58
2022/04/09 09:25:59;;;;;;;5.30;1.23;;;;;;;20.51;41.93;101124.50;5012320;28;20046;-59
2022/04/09 09:28:26;;;;;;;5.90;1.45;;;;;;;20.53;41.77;101118.09;5013194;28;20029;-59
2022/04/09 09:30:52;;;;;;;7.63;1.33;;;;;;;20.55;41.51;101113.50;5013013;28;20087;-58
2022/04/09 09:33:17;;;;;;;4.82;1.10;;;;;;;20.55;41.75;101139.13;5012309;28;20109;-58
2022/04/09 09:35:56;;;;;;;5.05;1.40;;;;;;;20.52;41.86;101127.03;5013165;28;20080;-58
2022/04/09 09:38:29;;;;;;;5.20;1.30;;;;;;;20.50;42.07;101131.59;5012294;28;20480;-58
2022/04/09 09:40:56;;;;;;;4.55;1.35;;;;;;;20.49;42.26;101148.47;5012858;28;20164;-58
2022/04/09 09:43:27;;;;;;;5.05;1.30;;;;;;;20.48;42.21;101142.31;5013283;28;20029;-58
2022/04/09 09:45:54;;;;;;;5.53;1.30;;;;;;;20.50;42.20;101146.66;5010923;28;20029;-58
2022/04/09 09:48:26;;;;;;;3.85;1.00;;;;;;;20.51;42.36;101143.88;5012962;28;20026;-58
2022/04/09 09:50:54;;;;;;;6.18;1.30;;;;;;;20.52;42.12;101134.97;5012814;28;20038;-59
2022/04/09 09:53:28;;;;;;;4.55;1.15;;;;;;;20.53;42.03;101141.91;5012070;28;20571;-59
2022/04/09 09:55:53;;;;;;;4.88;1.20;;;;;;;20.56;41.91;101138.19;5013073;28;20034;-59
2022/04/09 09:58:21;;;;;;;6.00;1.20;;;;;;;20.56;41.93;101136.34;5012681;28;20109;-58
2022/04/09 10:00:47;;;;;;;4.35;1.20;;;;;;;20.57;41.76;101142.47;5012257;28;20033;-58
2022/04/09 10:03:13;;;;;;;5.75;1.10;;;;;;;20.58;42.00;101155.59;5012588;28;20026;-58
2022/04/09 10:05:39;;;;;;;4.57;1.13;;;;;;;20.58;41.70;101146.81;5013010;28;20022;-58
2022/04/09 10:08:06;;;;;;;3.90;1.05;;;;;;;20.58;41.82;101144.16;5011527;28;20512;-58
2022/04/09 10:10:34;;;;;;;4.70;1.23;;;;;;;20.57;41.77;101142.47;5013068;28;20030;-58
2022/04/09 10:13:02;;;;;;;6.13;1.10;;;;;;;20.59;41.67;101151.16;5012061;28;20456;-57
2022/04/09 10:15:28;;;;;;;4.63;1.00;;;;;;;20.59;41.81;101145.84;5012106;28;20433;-58
2022/04/09 10:17:56;;;;;;;3.95;1.00;;;;;;;20.58;42.14;101150.28;5012407;28;20018;-57
2022/04/09 10:20:25;;;;;;;3.63;1.10;;;;;;;20.53;42.22;101144.56;5012013;28;20026;-58
2022/04/09 10:22:53;;;;;;;5.68;1.00;;;;;;;20.57;42.02;101153.06;5013019;28;20100;-58
2022/04/09 10:25:19;;;;;;;4.50;1.35;;;;;;;20.52;42.49;101145.56;5013435;28;20504;-57
2022/04/09 10:27:53;;;;;;;4.28;1.10;;;;;;;20.56;39.75;101151.41;5012515;28;20030;-59
2022/04/09 10:30:19;;;;;;;3.67;0.90;;;;;;;20.53;40.75;101156.97;5012941;28;20034;-59
2022/04/09 10:32:53;;;;;;;3.38;1.08;;;;;;;20.53;40.55;101160.47;5012551;28;20041;-58
2022/04/09 10:35:40;;;;;;;;;;;;;;;20.54;41.43;101158.66;5012194;28;20026;-56
2022/04/09 10:38:09;;;;;;;4.82;1.58;;;;;;;20.54;41.48;101159.50;5012486;28;19967;-56
2022/04/09 10:40:50;;;;;;;3.47;0.82;;;;;;;20.53;41.71;101157.81;5012478;28;20074;-58
2022/04/09 10:43:24;;;;;;;4.25;1.02;;;;;;;20.53;41.57;101162.28;5011816;28;20121;-58
2022/04/09 10:46:06;;;;;;;4.00;1.40;;;;;;;20.53;40.59;101160.47;5012222;28;20049;-58
2022/04/09 10:48:40;;;;;;;5.88;1.52;;;;;;;20.52;40.55;101166.75;5015416;28;20029;-57
2022/04/09 10:51:07;;;;;;;6.00;1.80;;;;;;;20.53;39.87;101167.56;5015805;28;20021;-58
2022/04/09 10:53:38;;;;;;;5.85;2.40;;;;;;;20.52;40.63;101172.03;5016329;28;20105;-59
2022/04/09 10:56:30;;;;;;;5.93;2.58;;;;;;;20.53;41.16;101168.41;5015082;28;20378;-58
2022/04/09 10:59:06;;;;;;;8.48;2.50;;;;;;;20.58;41.75;101165.34;5015881;28;20022;-60
2022/04/09 11:01:46;;;;;;;7.32;2.90;;;;;;;20.65;42.05;101177.97;5015810;28;20030;-58
2022/04/09 11:04:26;;;;;;;8.30;2.63;;;;;;;20.72;41.89;101166.84;5014724;28;20482;-58
2022/04/09 11:07:07;;;;;;;5.70;2.17;;;;;;;20.77;41.13;101164.63;5015750;28;20048;-57
2022/04/09 11:09:58;;;;;;;7.70;2.20;;;;;;;20.78;40.81;101163.66;5014961;28;20378;-57
2022/04/09 11:12:41;;;;;;;6.32;2.20;;;;;;;20.84;40.98;101156.00;5015694;28;20057;-60
2022/04/09 11:15:11;;;;;;;6.00;2.03;;;;;;;20.88;40.86;101167.16;5015500;28;20079;-59
2022/04/09 11:17:45;;;;;;;7.45;2.10;;;;;;;20.92;40.39;101162.44;5015155;28;20026;-59
2022/04/09 11:20:10;;;;;;;;;;;;;;;20.94;40.55;101163.97;5015764;28;20033;-59
2022/04/09 11:22:45;;;;;;;5.30;1.75;;;;;;;20.94;40.38;101171.94;5015705;28;19920;-58
2022/04/09 11:25:16;;;;;;;;;;;;;;;20.95;40.04;101180.69;5014717;28;20081;-59
2022/04/09 11:27:47;;;;;;;6.10;1.55;;;;;;;20.96;40.10;101183.22;5015392;28;20345;-59